createdAt,value
2018-03-29T00:00:28.344Z,5.90
2018-03-29T00:00:59.972Z,5.90
2018-03-29T00:01:31.618Z,5.90
2018-03-29T00:02:03.295Z,5.90
2018-03-29T00:02:34.953Z,5.90
2018-03-29T00:03:06.568Z,5.90
2018-03-29T00:03:38.180Z,6.00
2018-03-29T00:04:09.880Z,5.90
2018-03-29T00:04:41.512Z,6.00
2018-03-29T00:05:13.159Z,6.00
2018-03-29T00:05:44.830Z,6.00
2018-03-29T00:06:16.480Z,5.90
2018-03-29T00:06:48.195Z,6.00
2018-03-29T00:07:19.836Z,6.00
2018-03-29T00:07:51.448Z,6.00
2018-03-29T00:08:23.122Z,6.00
2018-03-29T00:08:54.776Z,6.10
2018-03-29T00:09:26.410Z,6.10
2018-03-29T00:09:58.044Z,6.10
2018-03-29T00:10:29.705Z,6.10
2018-03-29T00:11:01.304Z,6.10
2018-03-29T00:11:32.956Z,6.20
2018-03-29T00:12:04.620Z,6.20
2018-03-29T00:12:36.266Z,6.10
2018-03-29T00:13:07.906Z,6.20
2018-03-29T00:13:39.552Z,6.20
2018-03-29T00:14:11.182Z,6.20
2018-03-29T00:14:42.886Z,6.20
2018-03-29T00:15:14.520Z,6.20
2018-03-29T00:15:46.176Z,6.30
2018-03-29T00:16:17.793Z,6.20
2018-03-29T00:16:49.423Z,6.30
2018-03-29T00:17:21.082Z,6.20
2018-03-29T00:17:52.712Z,6.30
2018-03-29T00:18:24.338Z,6.40
2018-03-29T00:18:55.970Z,6.30
2018-03-29T00:19:27.590Z,6.30
2018-03-29T00:19:59.208Z,6.30
2018-03-29T00:20:30.848Z,6.30
2018-03-29T00:21:02.503Z,6.40
2018-03-29T00:21:34.175Z,6.30
2018-03-29T00:22:05.828Z,6.40
2018-03-29T00:22:37.452Z,6.40
2018-03-29T00:23:09.113Z,6.40
2018-03-29T00:23:40.764Z,6.40
2018-03-29T00:24:12.390Z,6.40
2018-03-29T00:24:44.028Z,6.50
2018-03-29T00:25:15.717Z,6.50
2018-03-29T00:25:47.343Z,6.50
2018-03-29T00:26:18.970Z,6.50
2018-03-29T00:26:50.594Z,6.60
2018-03-29T00:27:22.248Z,6.60
2018-03-29T00:27:53.912Z,6.60
2018-03-29T00:28:25.534Z,6.60
2018-03-29T00:28:57.156Z,6.60
2018-03-29T00:29:28.813Z,6.60
2018-03-29T00:30:00.462Z,6.70
2018-03-29T00:30:32.082Z,6.60
2018-03-29T00:31:03.717Z,6.70
2018-03-29T00:31:35.351Z,6.60
2018-03-29T00:32:06.989Z,6.60
2018-03-29T00:32:38.610Z,6.70
2018-03-29T00:33:10.245Z,6.70
2018-03-29T00:33:41.934Z,6.70
2018-03-29T00:34:13.614Z,6.70
2018-03-29T00:34:45.289Z,6.70
2018-03-29T00:35:16.941Z,6.70
2018-03-29T00:35:48.567Z,6.70
2018-03-29T00:36:20.284Z,6.70
2018-03-29T00:36:51.910Z,6.70
2018-03-29T00:37:23.549Z,6.70
2018-03-29T00:37:55.202Z,6.70
2018-03-29T00:38:26.841Z,6.70
2018-03-29T00:38:58.460Z,6.80
2018-03-29T00:39:30.111Z,6.80
2018-03-29T00:40:01.836Z,6.80
2018-03-29T00:40:33.440Z,6.80
2018-03-29T00:41:05.117Z,6.80
2018-03-29T00:41:36.765Z,6.90
2018-03-29T00:42:08.433Z,6.90
2018-03-29T00:42:40.050Z,6.90
2018-03-29T00:43:11.689Z,6.90
2018-03-29T00:43:43.324Z,6.90
2018-03-29T00:44:15.010Z,6.90
2018-03-29T00:44:46.626Z,6.90
2018-03-29T00:45:18.305Z,7.00
2018-03-29T00:45:49.966Z,6.90
2018-03-29T00:46:21.629Z,6.90
2018-03-29T00:46:53.327Z,7.00
2018-03-29T00:47:24.988Z,7.00
2018-03-29T00:47:56.650Z,6.90
2018-03-29T00:48:28.270Z,6.90
2018-03-29T00:48:59.918Z,6.90
2018-03-29T00:49:31.538Z,6.90
2018-03-29T00:50:03.219Z,7.00
2018-03-29T00:50:34.888Z,7.00
2018-03-29T00:51:06.516Z,7.00
2018-03-29T00:51:38.164Z,7.00
2018-03-29T00:52:09.815Z,7.00
2018-03-29T00:52:41.466Z,7.00
2018-03-29T00:53:31.796Z,7.00
2018-03-29T00:54:03.405Z,7.00
2018-03-29T00:54:35.046Z,7.00
2018-03-29T00:55:06.712Z,7.00
2018-03-29T00:55:38.362Z,6.90
2018-03-29T00:56:09.988Z,6.80
2018-03-29T00:56:41.640Z,6.90
2018-03-29T00:57:13.258Z,6.90
2018-03-29T00:57:44.874Z,6.90
2018-03-29T00:58:16.573Z,6.90
2018-03-29T00:58:48.190Z,6.90
2018-03-29T00:59:19.861Z,7.00
2018-03-29T00:59:51.509Z,7.00
2018-03-29T01:00:23.193Z,7.00
2018-03-29T01:00:54.839Z,6.90
2018-03-29T01:01:26.456Z,6.90
2018-03-29T01:01:58.089Z,7.00
2018-03-29T01:02:29.771Z,7.00
2018-03-29T01:03:01.406Z,6.90
2018-03-29T01:03:33.036Z,7.00
2018-03-29T01:04:04.721Z,7.00
2018-03-29T01:04:36.384Z,7.00
2018-03-29T01:05:08.074Z,7.00
2018-03-29T01:05:39.740Z,7.00
2018-03-29T01:06:11.412Z,7.00
2018-03-29T01:06:43.076Z,7.00
2018-03-29T01:07:14.706Z,7.10
2018-03-29T01:07:46.394Z,7.00
2018-03-29T01:08:18.001Z,7.00
2018-03-29T01:08:49.649Z,7.00
2018-03-29T01:09:21.291Z,7.00
2018-03-29T01:09:52.962Z,7.00
2018-03-29T01:10:24.571Z,7.00
2018-03-29T01:10:56.240Z,7.00
2018-03-29T01:11:27.890Z,6.90
2018-03-29T01:11:59.572Z,6.90
2018-03-29T01:12:31.198Z,6.90
2018-03-29T01:13:02.826Z,6.90
2018-03-29T01:13:34.466Z,7.00
2018-03-29T01:14:06.098Z,6.90
2018-03-29T01:14:37.767Z,7.00
2018-03-29T01:15:09.424Z,6.90
2018-03-29T01:15:41.074Z,6.90
2018-03-29T01:16:12.728Z,6.90
2018-03-29T01:16:44.372Z,6.90
2018-03-29T01:17:16.111Z,6.90
2018-03-29T01:17:47.774Z,6.90
2018-03-29T01:18:19.452Z,6.90
2018-03-29T01:18:51.125Z,7.00
2018-03-29T01:19:22.762Z,6.90
2018-03-29T01:19:54.412Z,6.90
2018-03-29T01:20:26.114Z,6.90
2018-03-29T01:20:57.795Z,6.90
2018-03-29T01:21:29.500Z,6.90
2018-03-29T01:22:01.155Z,6.90
2018-03-29T01:22:32.842Z,6.90
2018-03-29T01:23:04.552Z,6.90
2018-03-29T01:23:36.180Z,7.00
2018-03-29T01:24:08.192Z,7.00
2018-03-29T01:24:39.824Z,7.00
2018-03-29T01:25:11.486Z,6.90
2018-03-29T01:25:43.111Z,6.90
2018-03-29T01:26:14.758Z,7.00
2018-03-29T01:26:46.398Z,6.90
2018-03-29T01:27:18.074Z,6.90
2018-03-29T01:27:49.711Z,6.90
2018-03-29T01:28:21.365Z,6.90
2018-03-29T01:28:52.990Z,6.90
2018-03-29T01:29:24.629Z,6.90
2018-03-29T01:29:56.264Z,6.80
2018-03-29T01:30:27.922Z,6.80
2018-03-29T01:30:59.572Z,6.80
2018-03-29T01:31:31.234Z,6.80
2018-03-29T01:32:02.891Z,6.90
2018-03-29T01:32:37.447Z,6.80
2018-03-29T01:33:09.093Z,6.80
2018-03-29T01:33:40.708Z,6.80
2018-03-29T01:34:12.361Z,6.80
2018-03-29T01:34:43.987Z,6.80
2018-03-29T01:35:15.605Z,6.70
2018-03-29T01:35:47.304Z,6.70
2018-03-29T01:36:18.922Z,6.80
2018-03-29T01:36:50.885Z,6.70
2018-03-29T01:37:22.518Z,6.80
2018-03-29T01:37:54.134Z,6.80
2018-03-29T01:38:25.794Z,6.80
2018-03-29T01:38:57.465Z,6.80
2018-03-29T01:39:29.094Z,6.70
2018-03-29T01:40:00.753Z,6.70
2018-03-29T01:40:32.369Z,6.70
2018-03-29T01:41:04.024Z,6.70
2018-03-29T01:41:35.661Z,6.70
2018-03-29T01:42:07.279Z,6.70
2018-03-29T01:42:38.942Z,6.60
2018-03-29T01:43:10.556Z,6.70
2018-03-29T01:43:42.171Z,6.60
2018-03-29T01:44:13.799Z,6.60
2018-03-29T01:44:45.443Z,6.70
2018-03-29T01:45:17.089Z,6.70
2018-03-29T01:45:48.736Z,6.70
2018-03-29T01:46:20.376Z,6.60
2018-03-29T01:46:52.050Z,6.60
2018-03-29T01:47:23.676Z,6.70
2018-03-29T01:47:55.315Z,6.80
2018-03-29T01:48:26.968Z,6.80
2018-03-29T01:48:58.599Z,6.80
2018-03-29T01:49:30.219Z,6.80
2018-03-29T01:50:01.855Z,6.80
2018-03-29T01:50:33.494Z,6.80
2018-03-29T01:51:05.123Z,6.90
2018-03-29T01:51:36.775Z,6.80
2018-03-29T01:52:08.470Z,6.90
2018-03-29T01:52:40.127Z,6.90
2018-03-29T01:53:11.752Z,6.90
2018-03-29T01:53:43.390Z,6.90
2018-03-29T01:54:15.023Z,6.90
2018-03-29T01:54:46.677Z,6.90
2018-03-29T01:55:18.305Z,6.90
2018-03-29T01:55:49.950Z,6.90
2018-03-29T01:56:21.574Z,6.90
2018-03-29T01:56:53.188Z,6.90
2018-03-29T01:57:24.841Z,6.90
2018-03-29T01:57:56.452Z,6.90
2018-03-29T01:58:28.075Z,6.90
2018-03-29T01:58:59.684Z,6.90
2018-03-29T01:59:31.323Z,6.90
2018-03-29T02:00:03.042Z,6.90
2018-03-29T02:00:34.686Z,6.90
2018-03-29T02:01:06.339Z,7.00
2018-03-29T02:01:37.994Z,7.00
2018-03-29T02:02:09.678Z,7.00
2018-03-29T02:02:41.308Z,7.00
2018-03-29T02:03:12.962Z,7.00
2018-03-29T02:03:44.638Z,7.00
2018-03-29T02:04:16.339Z,7.00
2018-03-29T02:04:48.010Z,7.00
2018-03-29T02:05:19.655Z,7.00
2018-03-29T02:05:51.318Z,7.00
2018-03-29T02:06:22.947Z,7.00
2018-03-29T02:06:54.589Z,7.00
2018-03-29T02:07:26.227Z,7.00
2018-03-29T02:07:57.850Z,7.00
2018-03-29T02:08:29.523Z,7.00
2018-03-29T02:09:01.230Z,7.00
2018-03-29T02:09:32.860Z,7.00
2018-03-29T02:10:04.514Z,7.00
2018-03-29T02:10:36.170Z,7.00
2018-03-29T02:11:07.808Z,7.00
2018-03-29T02:11:39.475Z,7.00
2018-03-29T02:12:11.187Z,7.00
2018-03-29T02:12:42.898Z,7.00
2018-03-29T02:13:14.565Z,7.00
2018-03-29T02:13:46.217Z,7.00
2018-03-29T02:14:17.852Z,7.00
2018-03-29T02:14:49.481Z,7.00
2018-03-29T02:15:21.123Z,7.00
2018-03-29T02:15:52.782Z,7.10
2018-03-29T02:16:24.445Z,7.00
2018-03-29T02:16:56.108Z,7.00
2018-03-29T02:17:27.768Z,7.10
2018-03-29T02:17:59.416Z,7.00
2018-03-29T02:18:31.120Z,7.10
2018-03-29T02:19:02.739Z,7.10
2018-03-29T02:19:34.348Z,7.10
2018-03-29T02:20:05.977Z,7.10
2018-03-29T02:20:37.616Z,7.00
2018-03-29T02:21:09.313Z,7.00
2018-03-29T02:21:40.963Z,7.10
2018-03-29T02:22:12.605Z,7.10
2018-03-29T02:22:44.248Z,7.10
2018-03-29T02:23:15.874Z,7.10
2018-03-29T02:23:47.510Z,7.20
2018-03-29T02:24:19.223Z,7.20
2018-03-29T02:24:50.881Z,7.20
2018-03-29T02:25:22.519Z,7.20
2018-03-29T02:25:54.175Z,7.10
2018-03-29T02:26:25.801Z,7.20
2018-03-29T02:26:57.481Z,7.00
2018-03-29T02:27:29.160Z,7.10
2018-03-29T02:28:00.789Z,7.10
2018-03-29T02:28:32.449Z,7.10
2018-03-29T02:29:04.082Z,7.00
2018-03-29T02:29:35.749Z,7.00
2018-03-29T02:30:07.373Z,7.10
2018-03-29T02:30:39.042Z,7.20
2018-03-29T02:31:10.709Z,7.10
2018-03-29T02:31:42.346Z,7.10
2018-03-29T02:32:13.983Z,7.20
2018-03-29T02:32:45.609Z,7.20
2018-03-29T02:33:17.232Z,7.20
2018-03-29T02:33:48.885Z,7.20
2018-03-29T02:34:20.508Z,7.20
2018-03-29T02:34:52.130Z,7.20
2018-03-29T02:35:23.793Z,7.20
2018-03-29T02:35:55.458Z,7.20
2018-03-29T02:36:27.090Z,7.20
2018-03-29T02:36:58.796Z,7.30
2018-03-29T02:37:30.420Z,7.20
2018-03-29T02:38:02.037Z,7.20
2018-03-29T02:38:33.673Z,7.20
2018-03-29T02:39:05.345Z,7.20
2018-03-29T02:39:36.991Z,7.30
2018-03-29T02:40:08.626Z,7.20
2018-03-29T02:40:40.247Z,7.20
2018-03-29T02:41:11.950Z,7.20
2018-03-29T02:41:43.608Z,7.20
2018-03-29T02:42:15.250Z,7.10
2018-03-29T02:42:46.874Z,7.00
2018-03-29T02:43:18.550Z,7.00
2018-03-29T02:43:50.197Z,7.00
2018-03-29T02:44:21.822Z,7.00
2018-03-29T02:44:53.462Z,7.00
2018-03-29T02:45:25.112Z,7.00
2018-03-29T02:45:56.747Z,7.00
2018-03-29T02:46:28.365Z,7.00
2018-03-29T02:46:59.968Z,7.00
2018-03-29T02:47:31.619Z,7.00
2018-03-29T02:48:03.327Z,7.00
2018-03-29T02:48:34.959Z,7.00
2018-03-29T02:49:06.580Z,7.00
2018-03-29T02:49:38.205Z,7.00
2018-03-29T02:50:09.893Z,7.00
2018-03-29T02:50:41.530Z,7.00
2018-03-29T02:51:13.181Z,7.00
2018-03-29T02:51:44.801Z,7.00
2018-03-29T02:52:16.441Z,7.00
2018-03-29T02:52:48.096Z,6.90
2018-03-29T02:53:19.720Z,6.90
2018-03-29T02:53:51.401Z,6.90
2018-03-29T02:54:23.028Z,6.90
2018-03-29T02:54:54.652Z,6.90
2018-03-29T02:55:26.304Z,6.80
2018-03-29T02:55:57.942Z,6.80
2018-03-29T02:56:29.557Z,6.80
2018-03-29T02:57:01.180Z,6.80
2018-03-29T02:57:32.838Z,7.00
2018-03-29T02:58:04.474Z,6.80
2018-03-29T02:58:36.149Z,6.80
2018-03-29T02:59:07.791Z,6.80
2018-03-29T02:59:39.407Z,6.80
2018-03-29T03:00:11.097Z,6.80
2018-03-29T03:00:42.789Z,6.80
2018-03-29T03:01:14.418Z,6.80
2018-03-29T03:01:46.076Z,6.80
2018-03-29T03:02:17.720Z,6.80
2018-03-29T03:02:49.374Z,7.00
2018-03-29T03:03:21.032Z,6.80
2018-03-29T03:03:52.711Z,6.80
2018-03-29T03:04:24.330Z,6.80
2018-03-29T03:04:55.968Z,6.90
2018-03-29T03:05:27.613Z,6.60
2018-03-29T03:05:59.276Z,6.70
2018-03-29T03:06:30.913Z,6.70
2018-03-29T03:07:02.591Z,6.80
2018-03-29T03:07:34.212Z,6.70
2018-03-29T03:08:05.841Z,6.60
2018-03-29T03:08:37.485Z,6.70
2018-03-29T03:09:09.197Z,6.50
2018-03-29T03:09:40.839Z,6.60
2018-03-29T03:10:12.467Z,6.40
2018-03-29T03:10:44.080Z,6.60
2018-03-29T03:11:15.743Z,6.60
2018-03-29T03:11:47.393Z,6.50
2018-03-29T03:12:19.011Z,6.60
2018-03-29T03:12:50.641Z,6.60
2018-03-29T03:13:22.276Z,6.60
2018-03-29T03:13:53.921Z,6.60
2018-03-29T03:14:25.603Z,6.70
2018-03-29T03:14:57.220Z,6.60
2018-03-29T03:15:28.885Z,6.60
2018-03-29T03:16:00.527Z,6.60
2018-03-29T03:16:32.149Z,6.70
2018-03-29T03:17:03.760Z,6.60
2018-03-29T03:17:35.393Z,6.60
2018-03-29T03:18:07.033Z,6.60
2018-03-29T03:18:38.657Z,6.60
2018-03-29T03:19:10.268Z,6.60
2018-03-29T03:19:41.930Z,6.70
2018-03-29T03:20:13.599Z,6.60
2018-03-29T03:20:45.249Z,6.60
2018-03-29T03:21:16.879Z,6.60
2018-03-29T03:21:48.495Z,6.70
2018-03-29T03:22:20.157Z,6.70
2018-03-29T03:22:51.761Z,6.70
2018-03-29T03:23:23.409Z,6.70
2018-03-29T03:23:55.084Z,6.70
2018-03-29T03:24:26.701Z,6.70
2018-03-29T03:24:58.389Z,6.70
2018-03-29T03:25:30.019Z,6.80
2018-03-29T03:26:01.658Z,6.80
2018-03-29T03:26:33.293Z,6.80
2018-03-29T03:27:04.963Z,6.70
2018-03-29T03:27:36.610Z,6.80
2018-03-29T03:28:08.249Z,6.80
2018-03-29T03:28:39.917Z,6.80
2018-03-29T03:29:11.550Z,6.80
2018-03-29T03:29:43.167Z,6.80
2018-03-29T03:30:14.802Z,6.80
2018-03-29T03:30:46.447Z,6.80
2018-03-29T03:31:18.063Z,6.80
2018-03-29T03:31:49.735Z,6.80
2018-03-29T03:32:21.369Z,6.80
2018-03-29T03:32:52.998Z,6.80
2018-03-29T03:33:24.615Z,6.80
2018-03-29T03:33:56.249Z,6.80
2018-03-29T03:34:27.882Z,6.70
2018-03-29T03:34:59.537Z,6.70
2018-03-29T03:35:31.167Z,6.80
2018-03-29T03:36:02.839Z,6.80
2018-03-29T03:36:34.487Z,6.80
2018-03-29T03:37:06.173Z,6.80
2018-03-29T03:37:37.799Z,6.80
2018-03-29T03:38:09.453Z,6.80
2018-03-29T03:38:41.107Z,6.80
2018-03-29T03:39:12.743Z,6.80
2018-03-29T03:39:44.401Z,6.80
2018-03-29T03:40:16.035Z,6.90
2018-03-29T03:40:47.725Z,6.80
2018-03-29T03:41:19.345Z,6.90
2018-03-29T03:41:50.971Z,6.90
2018-03-29T03:42:22.588Z,6.90
2018-03-29T03:42:54.225Z,6.90
2018-03-29T03:43:25.853Z,6.90
2018-03-29T03:43:57.480Z,6.90
2018-03-29T03:44:29.203Z,6.90
2018-03-29T03:45:00.897Z,6.90
2018-03-29T03:45:32.555Z,6.90
2018-03-29T03:46:04.191Z,7.00
2018-03-29T03:46:35.821Z,7.00
2018-03-29T03:47:07.457Z,6.90
2018-03-29T03:47:39.076Z,6.90
2018-03-29T03:48:10.725Z,7.00
2018-03-29T03:48:42.364Z,6.90
2018-03-29T03:49:14.021Z,7.00
2018-03-29T03:49:45.637Z,6.90
2018-03-29T03:50:17.273Z,6.90
2018-03-29T03:50:48.971Z,7.00
2018-03-29T03:51:20.607Z,7.00
2018-03-29T03:51:52.233Z,7.00
2018-03-29T03:52:23.861Z,7.00
2018-03-29T03:52:55.501Z,7.00
2018-03-29T03:53:27.178Z,6.90
2018-03-29T03:53:58.791Z,6.90
2018-03-29T03:54:30.419Z,7.00
2018-03-29T03:55:02.053Z,7.00
2018-03-29T03:55:33.695Z,7.00
2018-03-29T03:56:05.323Z,7.00
2018-03-29T03:56:37.015Z,7.00
2018-03-29T03:57:08.657Z,7.00
2018-03-29T03:57:40.297Z,7.00
2018-03-29T03:58:11.930Z,7.00
2018-03-29T03:58:43.553Z,7.00
2018-03-29T03:59:15.195Z,7.00
2018-03-29T03:59:46.846Z,7.00
2018-03-29T04:00:18.492Z,7.00
2018-03-29T04:00:50.145Z,7.00
2018-03-29T04:01:21.773Z,7.00
2018-03-29T04:01:53.458Z,7.00
2018-03-29T04:02:25.141Z,7.00
2018-03-29T04:02:56.768Z,7.00
2018-03-29T04:03:28.409Z,7.00
2018-03-29T04:04:00.041Z,7.00
2018-03-29T04:04:31.691Z,7.00
2018-03-29T04:05:03.362Z,7.00
2018-03-29T04:05:35.005Z,7.00
2018-03-29T04:06:06.631Z,7.00
2018-03-29T04:06:38.329Z,7.00
2018-03-29T04:07:09.981Z,7.00
2018-03-29T04:07:41.617Z,7.00
2018-03-29T04:08:13.321Z,7.00
2018-03-29T04:08:44.933Z,7.00
2018-03-29T04:09:16.585Z,7.00
2018-03-29T04:09:48.241Z,7.00
2018-03-29T04:10:19.859Z,7.00
2018-03-29T04:10:51.551Z,7.10
2018-03-29T04:11:23.220Z,7.00
2018-03-29T04:11:54.853Z,7.00
2018-03-29T04:12:26.508Z,7.00
2018-03-29T04:12:58.174Z,6.90
2018-03-29T04:13:29.833Z,6.90
2018-03-29T04:14:01.483Z,6.90
2018-03-29T04:14:33.146Z,6.90
2018-03-29T04:15:04.797Z,6.90
2018-03-29T04:15:36.443Z,6.80
2018-03-29T04:16:08.156Z,6.80
2018-03-29T04:16:39.797Z,6.80
2018-03-29T04:17:11.408Z,6.80
2018-03-29T04:17:43.060Z,6.70
2018-03-29T04:18:14.676Z,6.70
2018-03-29T04:18:46.342Z,6.70
2018-03-29T04:19:17.989Z,6.70
2018-03-29T04:19:49.627Z,6.60
2018-03-29T04:20:21.241Z,6.60
2018-03-29T04:20:52.860Z,6.60
2018-03-29T04:21:24.509Z,6.60
2018-03-29T04:21:56.156Z,6.60
2018-03-29T04:22:27.793Z,6.50
2018-03-29T04:22:59.412Z,6.50
2018-03-29T04:23:31.089Z,6.50
2018-03-29T04:24:02.719Z,6.50
2018-03-29T04:24:34.417Z,6.50
2018-03-29T04:25:06.051Z,6.50
2018-03-29T04:25:37.681Z,6.40
2018-03-29T04:26:09.303Z,6.40
2018-03-29T04:26:40.917Z,6.40
2018-03-29T04:27:12.537Z,6.30
2018-03-29T04:27:44.307Z,6.40
2018-03-29T04:28:15.937Z,6.30
2018-03-29T04:28:47.593Z,6.30
2018-03-29T04:29:19.248Z,6.30
2018-03-29T04:29:50.873Z,6.30
2018-03-29T04:30:22.584Z,6.30
2018-03-29T04:30:54.223Z,6.20
2018-03-29T04:31:25.909Z,6.20
2018-03-29T04:31:57.553Z,6.30
2018-03-29T04:32:29.208Z,6.20
2018-03-29T04:33:00.881Z,6.20
2018-03-29T04:33:32.561Z,6.20
2018-03-29T04:34:04.174Z,6.20
2018-03-29T04:34:35.858Z,6.20
2018-03-29T04:35:07.541Z,6.20
2018-03-29T04:35:39.217Z,6.20
2018-03-29T04:36:10.867Z,6.20
2018-03-29T04:36:42.502Z,6.20
2018-03-29T04:37:14.119Z,6.20
2018-03-29T04:37:45.745Z,6.20
2018-03-29T04:38:17.390Z,6.20
2018-03-29T04:38:49.047Z,6.20
2018-03-29T04:39:20.672Z,6.20
2018-03-29T04:39:52.379Z,6.20
2018-03-29T04:40:24.045Z,6.20
2018-03-29T04:40:55.680Z,6.20
2018-03-29T04:41:27.325Z,6.20
2018-03-29T04:41:58.941Z,6.20
2018-03-29T04:42:30.569Z,6.20
2018-03-29T04:43:02.191Z,6.20
2018-03-29T04:43:33.797Z,6.20
2018-03-29T04:44:05.417Z,6.20
2018-03-29T04:44:37.053Z,6.20
2018-03-29T04:45:08.705Z,6.10
2018-03-29T04:45:40.349Z,6.20
2018-03-29T04:46:12.015Z,6.10
2018-03-29T04:46:43.693Z,6.10
2018-03-29T04:47:15.334Z,6.10
2018-03-29T04:47:46.978Z,6.00
2018-03-29T04:48:18.711Z,6.00
2018-03-29T04:48:50.321Z,6.00
2018-03-29T04:49:21.957Z,6.00
2018-03-29T04:49:53.589Z,5.90
2018-03-29T04:50:25.219Z,6.00
2018-03-29T04:50:56.862Z,5.90
2018-03-29T04:51:28.543Z,5.90
2018-03-29T04:52:00.167Z,5.90
2018-03-29T04:52:31.810Z,5.90
2018-03-29T04:53:03.446Z,5.80
2018-03-29T04:53:35.084Z,5.80
2018-03-29T04:54:06.775Z,5.80
2018-03-29T04:54:38.393Z,5.80
2018-03-29T04:55:10.049Z,5.70
2018-03-29T04:55:41.688Z,5.70
2018-03-29T04:56:13.350Z,5.70
2018-03-29T04:56:44.990Z,5.70
2018-03-29T04:57:16.629Z,5.70
2018-03-29T04:57:48.276Z,5.60
2018-03-29T04:58:19.920Z,5.60
2018-03-29T04:58:51.540Z,5.60
2018-03-29T04:59:23.181Z,5.60
2018-03-29T04:59:54.809Z,5.60
2018-03-29T05:00:26.435Z,5.60
2018-03-29T05:00:58.092Z,5.60
2018-03-29T05:01:29.742Z,5.50
2018-03-29T05:02:01.435Z,5.50
2018-03-29T05:02:33.052Z,5.50
2018-03-29T05:03:04.672Z,5.50
2018-03-29T05:03:36.296Z,5.40
2018-03-29T05:04:07.932Z,5.40
2018-03-29T05:04:39.572Z,5.40
2018-03-29T05:05:11.220Z,5.40
2018-03-29T05:05:42.886Z,5.40
2018-03-29T05:06:14.531Z,5.40
2018-03-29T05:06:46.189Z,5.40
2018-03-29T05:07:17.833Z,5.40
2018-03-29T05:07:49.476Z,5.40
2018-03-29T05:08:21.120Z,5.40
2018-03-29T05:08:52.796Z,5.40
2018-03-29T05:09:24.431Z,5.40
2018-03-29T05:09:56.075Z,5.40
2018-03-29T05:10:27.687Z,5.50
2018-03-29T05:10:59.457Z,5.50
2018-03-29T05:11:31.100Z,5.50
2018-03-29T05:12:02.755Z,5.50
2018-03-29T05:12:34.401Z,5.60
2018-03-29T05:13:06.035Z,5.60
2018-03-29T05:13:37.703Z,5.60
2018-03-29T05:14:09.317Z,5.60
2018-03-29T05:14:40.992Z,5.60
2018-03-29T05:15:12.635Z,5.60
2018-03-29T05:15:44.268Z,5.70
2018-03-29T05:16:15.951Z,5.70
2018-03-29T05:16:47.593Z,5.70
2018-03-29T05:17:19.221Z,5.70
2018-03-29T05:17:50.846Z,5.80
2018-03-29T05:18:22.503Z,5.80
2018-03-29T05:18:54.152Z,5.80
2018-03-29T05:19:25.776Z,5.90
2018-03-29T05:19:57.436Z,5.90
2018-03-29T05:20:29.090Z,5.90
2018-03-29T05:21:00.720Z,5.90
2018-03-29T05:21:32.361Z,5.90
2018-03-29T05:22:04.014Z,5.90
2018-03-29T05:22:35.624Z,6.00
2018-03-29T05:23:07.298Z,6.00
2018-03-29T05:23:38.953Z,6.00
2018-03-29T05:24:10.590Z,6.00
2018-03-29T05:24:42.287Z,6.10
2018-03-29T05:25:13.936Z,6.10
2018-03-29T05:25:45.594Z,6.10
2018-03-29T05:26:17.229Z,6.10
2018-03-29T05:26:48.910Z,6.10
2018-03-29T05:27:25.612Z,6.20
2018-03-29T05:27:57.255Z,6.20
2018-03-29T05:28:28.850Z,6.20
2018-03-29T05:29:00.503Z,6.20
2018-03-29T05:29:32.186Z,6.20
2018-03-29T05:30:03.872Z,6.30
2018-03-29T05:30:35.533Z,6.30
2018-03-29T05:31:07.165Z,6.30
2018-03-29T05:31:38.854Z,6.30
2018-03-29T05:32:10.496Z,6.30
2018-03-29T05:32:42.106Z,6.30
2018-03-29T05:33:13.743Z,6.30
2018-03-29T05:33:45.451Z,6.30
2018-03-29T05:34:17.077Z,6.20
2018-03-29T05:34:48.730Z,6.30
2018-03-29T05:35:20.343Z,6.30
2018-03-29T05:35:52.020Z,6.20
2018-03-29T05:36:23.651Z,6.20
2018-03-29T05:36:55.293Z,6.20
2018-03-29T05:37:26.943Z,6.20
2018-03-29T05:37:58.573Z,6.20
2018-03-29T05:38:30.225Z,6.20
2018-03-29T05:39:01.853Z,6.20
2018-03-29T05:39:33.489Z,6.10
2018-03-29T05:40:05.116Z,6.20
2018-03-29T05:40:36.732Z,6.20
2018-03-29T05:41:08.371Z,6.10
2018-03-29T05:41:40.009Z,6.10
2018-03-29T05:42:11.627Z,6.10
2018-03-29T05:42:43.278Z,6.10
2018-03-29T05:43:14.904Z,6.10
2018-03-29T05:43:46.553Z,6.10
2018-03-29T05:44:18.192Z,6.10
2018-03-29T05:44:49.820Z,6.10
2018-03-29T05:45:21.500Z,6.10
2018-03-29T05:45:53.120Z,6.10
2018-03-29T05:46:24.732Z,6.10
2018-03-29T05:46:56.352Z,6.10
2018-03-29T05:47:28.000Z,6.10
2018-03-29T05:47:59.677Z,6.10
2018-03-29T05:48:31.408Z,6.10
2018-03-29T05:49:03.078Z,6.10
2018-03-29T05:49:34.709Z,6.10
2018-03-29T05:50:06.339Z,6.10
2018-03-29T05:50:37.973Z,6.10
2018-03-29T05:51:09.617Z,6.10
2018-03-29T05:51:41.225Z,6.10
2018-03-29T05:52:12.886Z,6.10
2018-03-29T05:52:44.486Z,6.10
2018-03-29T05:53:16.119Z,6.10
2018-03-29T05:53:47.778Z,6.10
2018-03-29T05:54:19.456Z,6.10
2018-03-29T05:54:51.141Z,6.10
2018-03-29T05:55:22.751Z,6.10
2018-03-29T05:55:54.398Z,6.10
2018-03-29T05:56:26.031Z,6.10
2018-03-29T05:56:57.659Z,6.10
2018-03-29T05:57:29.341Z,6.10
2018-03-29T05:58:00.967Z,6.10
2018-03-29T05:58:32.587Z,6.10
2018-03-29T05:59:04.213Z,6.20
2018-03-29T05:59:35.888Z,6.20
2018-03-29T06:00:07.597Z,6.20
2018-03-29T06:00:39.216Z,6.20
2018-03-29T06:01:10.890Z,6.20
2018-03-29T06:01:42.557Z,6.20
2018-03-29T06:02:14.192Z,6.30
2018-03-29T06:02:45.817Z,6.30
2018-03-29T06:03:17.423Z,6.30
2018-03-29T06:03:49.092Z,6.30
2018-03-29T06:04:20.743Z,6.30
2018-03-29T06:04:52.383Z,6.40
2018-03-29T06:05:24.006Z,6.40
2018-03-29T06:05:55.681Z,6.40
2018-03-29T06:06:27.316Z,6.40
2018-03-29T06:06:58.984Z,6.50
2018-03-29T06:07:30.625Z,6.50
2018-03-29T06:08:02.279Z,6.50
2018-03-29T06:08:33.901Z,6.60
2018-03-29T06:09:05.557Z,6.60
2018-03-29T06:09:37.249Z,6.60
2018-03-29T06:10:08.912Z,6.60
2018-03-29T06:10:40.560Z,6.60
2018-03-29T06:11:12.210Z,6.60
2018-03-29T06:11:43.865Z,6.70
2018-03-29T06:12:15.533Z,6.70
2018-03-29T06:12:47.208Z,6.80
2018-03-29T06:13:18.818Z,6.80
2018-03-29T06:13:56.652Z,6.80
2018-03-29T06:14:34.353Z,6.90
2018-03-29T06:15:12.235Z,6.90
2018-03-29T06:15:43.918Z,6.90
2018-03-29T06:16:16.593Z,6.90
2018-03-29T06:16:48.276Z,6.90
2018-03-29T06:17:25.991Z,7.00
2018-03-29T06:17:59.673Z,6.90
2018-03-29T06:18:31.359Z,7.00
2018-03-29T06:19:08.001Z,7.00
2018-03-29T06:19:39.640Z,7.00
2018-03-29T06:20:11.309Z,7.00
2018-03-29T06:20:42.927Z,7.00
2018-03-29T06:21:14.564Z,7.00
2018-03-29T06:21:46.206Z,7.00
2018-03-29T06:22:17.856Z,7.00
2018-03-29T06:22:49.502Z,7.00
2018-03-29T06:23:21.140Z,7.00
2018-03-29T06:23:52.747Z,7.00
2018-03-29T06:24:24.414Z,7.00
2018-03-29T06:24:56.102Z,7.00
2018-03-29T06:25:27.722Z,7.00
2018-03-29T06:25:59.347Z,6.90
2018-03-29T06:26:30.990Z,7.00
2018-03-29T06:27:02.626Z,6.90
2018-03-29T06:27:34.253Z,6.90
2018-03-29T06:28:05.881Z,7.00
2018-03-29T06:28:37.525Z,7.00
2018-03-29T06:29:09.152Z,7.00
2018-03-29T06:29:40.821Z,7.00
2018-03-29T06:30:12.492Z,7.00
2018-03-29T06:30:44.129Z,7.00
2018-03-29T06:31:15.758Z,7.00
2018-03-29T06:31:47.373Z,7.00
2018-03-29T06:32:19.059Z,7.00
2018-03-29T06:32:50.683Z,7.00
2018-03-29T06:33:22.328Z,7.00
2018-03-29T06:33:53.962Z,7.00
2018-03-29T06:34:25.620Z,7.00
2018-03-29T06:34:57.234Z,7.00
2018-03-29T06:35:28.856Z,7.10
2018-03-29T06:36:00.492Z,7.10
2018-03-29T06:36:32.111Z,7.00
2018-03-29T06:37:03.752Z,7.10
2018-03-29T06:37:35.402Z,7.10
2018-03-29T06:38:07.049Z,7.10
2018-03-29T06:38:38.740Z,7.00
2018-03-29T06:39:10.322Z,7.10
2018-03-29T06:39:41.971Z,7.10
2018-03-29T06:40:13.596Z,7.10
2018-03-29T06:40:45.240Z,7.10
2018-03-29T06:41:16.892Z,7.10
2018-03-29T06:41:48.544Z,7.20
2018-03-29T06:42:20.190Z,7.20
2018-03-29T06:42:51.795Z,7.30
2018-03-29T06:43:23.445Z,7.20
2018-03-29T06:43:55.074Z,7.30
2018-03-29T06:44:26.766Z,7.30
2018-03-29T06:44:58.375Z,7.30
2018-03-29T06:45:30.005Z,7.30
2018-03-29T06:46:01.654Z,7.30
2018-03-29T06:46:33.337Z,7.30
2018-03-29T06:47:05.037Z,7.30
2018-03-29T06:47:36.696Z,7.40
2018-03-29T06:48:08.359Z,7.40
2018-03-29T06:48:40.041Z,7.40
2018-03-29T06:49:11.667Z,7.40
2018-03-29T06:49:43.278Z,7.40
2018-03-29T06:50:14.945Z,7.50
2018-03-29T06:50:46.567Z,7.50
2018-03-29T06:51:18.196Z,7.50
2018-03-29T06:51:49.837Z,7.50
2018-03-29T06:52:21.494Z,7.60
2018-03-29T06:52:53.126Z,7.60
2018-03-29T06:53:24.743Z,7.60
2018-03-29T06:53:56.379Z,7.70
2018-03-29T06:54:28.018Z,7.70
2018-03-29T06:54:59.688Z,7.80
2018-03-29T06:55:31.339Z,7.90
2018-03-29T06:56:03.015Z,7.90
2018-03-29T06:56:34.638Z,7.90
2018-03-29T06:57:06.290Z,8.00
2018-03-29T06:57:37.916Z,8.00
2018-03-29T06:58:09.592Z,8.00
2018-03-29T06:58:41.250Z,8.10
2018-03-29T06:59:12.874Z,8.10
2018-03-29T06:59:44.508Z,8.20
2018-03-29T07:00:16.173Z,8.20
2018-03-29T07:00:47.838Z,8.20
2018-03-29T07:01:19.483Z,8.20
2018-03-29T07:01:51.155Z,8.30
2018-03-29T07:02:22.777Z,8.30